createdAt,value
2023-03-29T00:01:43.028Z,92850.88
2023-03-29T00:04:47.440Z,92852.69
2023-03-29T00:07:54.915Z,92848.16
2023-03-29T00:11:00.037Z,92855.59
2023-03-29T00:14:04.140Z,92849.44
2023-03-29T00:17:07.752Z,92853.94
2023-03-29T00:20:11.213Z,92859.38
2023-03-29T00:23:14.802Z,92856.94
2023-03-29T00:26:18.114Z,92859.66
2023-03-29T00:29:22.287Z,92861.19
2023-03-29T00:32:27.015Z,92871.38
2023-03-29T00:35:30.350Z,92869.22
2023-03-29T00:38:35.303Z,92867.19
2023-03-29T00:41:38.385Z,92870.56
2023-03-29T00:45:04.762Z,92870.13
2023-03-29T00:48:12.076Z,92871.47
2023-03-29T00:51:19.487Z,92878.16
2023-03-29T00:54:22.610Z,92861.94
2023-03-29T00:57:28.017Z,92881.47
2023-03-29T01:00:36.261Z,92877.09
2023-03-29T01:03:48.820Z,92873.13
2023-03-29T01:07:01.989Z,92877.63
2023-03-29T01:10:12.975Z,92881.53
2023-03-29T01:13:23.002Z,92892.16
2023-03-29T01:16:29.466Z,92886.56
2023-03-29T01:19:39.598Z,92891.75
2023-03-29T01:22:52.404Z,92886.41
2023-03-29T01:26:11.569Z,92897.75
2023-03-29T01:29:32.736Z,92897.56
2023-03-29T01:32:48.448Z,92910.75
2023-03-29T01:36:28.066Z,92905.59
2023-03-29T01:39:32.246Z,92921.84
2023-03-29T01:43:04.719Z,92908.75
2023-03-29T01:46:22.223Z,92902.56
2023-03-29T01:49:35.496Z,92916.91
2023-03-29T01:52:54.736Z,92907.59
2023-03-29T01:56:08.248Z,92919.84
2023-03-29T01:59:17.200Z,92920.47
2023-03-29T02:02:22.691Z,92923.97
2023-03-29T02:05:29.015Z,92920.81
2023-03-29T02:08:34.789Z,92927.47
2023-03-29T02:11:37.999Z,92924.41
2023-03-29T02:14:42.061Z,92930.78
2023-03-29T02:17:46.942Z,92924.97
2023-03-29T02:20:51.707Z,92929.22
2023-03-29T02:23:59.410Z,92928.13
2023-03-29T02:27:02.883Z,92939.84
2023-03-29T02:30:11.753Z,92935.53
2023-03-29T02:33:20.247Z,92928.47
2023-03-29T02:36:28.808Z,92917.66
2023-03-29T02:39:35.592Z,92912.13
2023-03-29T02:42:43.446Z,92909.88
2023-03-29T02:45:47.764Z,92894.00
2023-03-29T02:48:54.932Z,92916.75
2023-03-29T02:52:03.277Z,92917.03
2023-03-29T02:55:11.772Z,92909.63
2023-03-29T02:58:16.983Z,92919.03
2023-03-29T03:01:23.848Z,92914.13
2023-03-29T03:04:27.517Z,92917.41
2023-03-29T03:07:30.751Z,92911.38
2023-03-29T03:10:35.764Z,92909.75
2023-03-29T03:13:40.246Z,92915.16
2023-03-29T03:16:44.027Z,92924.28
2023-03-29T03:19:48.346Z,92918.06
2023-03-29T03:22:51.364Z,92928.56
2023-03-29T03:25:56.327Z,92925.06
2023-03-29T03:29:00.052Z,92917.63
2023-03-29T03:32:21.748Z,92935.13
2023-03-29T03:35:51.349Z,92929.47
2023-03-29T03:38:54.680Z,92931.34
2023-03-29T03:41:57.933Z,92935.78
2023-03-29T03:45:01.059Z,92918.00
2023-03-29T03:48:10.366Z,92924.47
2023-03-29T03:51:33.542Z,92923.81
2023-03-29T03:54:37.367Z,92920.09
2023-03-29T03:58:00.959Z,92922.72
2023-03-29T04:01:06.048Z,92921.19
2023-03-29T04:04:20.436Z,92915.03
2023-03-29T04:07:36.460Z,92902.97
2023-03-29T04:11:05.392Z,92909.41
2023-03-29T04:14:14.555Z,92909.03
2023-03-29T04:17:41.247Z,92914.34
2023-03-29T04:21:03.947Z,92898.25
2023-03-29T04:24:10.026Z,92917.50
2023-03-29T04:27:15.831Z,92905.81
2023-03-29T04:30:18.840Z,92911.38
2023-03-29T04:33:55.690Z,92917.56
2023-03-29T04:37:00.542Z,92901.16
2023-03-29T04:40:09.667Z,92906.41
2023-03-29T04:43:25.617Z,92900.81
2023-03-29T04:46:35.538Z,92894.84
2023-03-29T04:49:56.919Z,92904.19
2023-03-29T04:53:29.845Z,92899.81
2023-03-29T04:56:33.597Z,92897.78
2023-03-29T04:59:56.234Z,92897.56
2023-03-29T05:03:20.391Z,92902.28
2023-03-29T05:06:34.594Z,92888.97
2023-03-29T05:09:39.157Z,92888.78
2023-03-29T05:12:43.281Z,92883.53
2023-03-29T05:15:47.093Z,92883.50
2023-03-29T05:18:52.627Z,92884.19
2023-03-29T05:21:56.044Z,92878.13
2023-03-29T05:25:00.422Z,92879.00
2023-03-29T05:28:05.739Z,92876.75
2023-03-29T05:31:10.224Z,92880.81
2023-03-29T05:34:15.605Z,92882.88
2023-03-29T05:37:24.044Z,92889.56
2023-03-29T05:40:33.357Z,92880.13
2023-03-29T05:43:55.796Z,92878.72
2023-03-29T05:47:02.046Z,92861.94
2023-03-29T05:50:09.980Z,92877.25
2023-03-29T05:53:14.435Z,92875.84
2023-03-29T05:56:20.002Z,92882.22
2023-03-29T05:59:25.017Z,92876.69
2023-03-29T06:02:29.516Z,92868.03
2023-03-29T06:05:33.636Z,92874.75
2023-03-29T06:08:37.888Z,92865.34
2023-03-29T06:11:59.444Z,92864.06
2023-03-29T06:15:14.244Z,92865.38
2023-03-29T06:18:24.102Z,92858.56
2023-03-29T06:21:29.496Z,92867.16
2023-03-29T06:24:33.950Z,92854.81
2023-03-29T06:27:44.907Z,92864.03
2023-03-29T06:30:50.893Z,92874.25
2023-03-29T06:33:55.200Z,92872.06
2023-03-29T06:37:14.479Z,92872.94
2023-03-29T06:40:25.597Z,92875.25
2023-03-29T06:43:32.046Z,92862.06
2023-03-29T06:46:43.737Z,92855.88
2023-03-29T06:49:46.792Z,92870.69
2023-03-29T06:53:20.035Z,92867.59
2023-03-29T06:56:32.852Z,92876.00
2023-03-29T06:59:40.510Z,92880.81
2023-03-29T07:02:50.223Z,92865.38
2023-03-29T07:05:54.042Z,92862.25
2023-03-29T07:09:00.386Z,92876.28
2023-03-29T07:12:24.333Z,92862.97
2023-03-29T07:15:32.812Z,92856.63
2023-03-29T07:18:52.924Z,92873.38
2023-03-29T07:22:14.666Z,92886.97
2023-03-29T07:25:26.800Z,92877.25
2023-03-29T07:28:30.340Z,92883.66
2023-03-29T07:31:36.673Z,92874.34
2023-03-29T07:35:03.268Z,92881.91
2023-03-29T07:38:10.132Z,92869.94
2023-03-29T07:41:18.244Z,92873.53
2023-03-29T07:44:24.410Z,92889.19
2023-03-29T07:47:28.603Z,92869.09
2023-03-29T07:50:33.524Z,92874.16
2023-03-29T07:53:39.590Z,92900.53
2023-03-29T07:56:57.845Z,92892.63
2023-03-29T08:00:20.176Z,92885.78
2023-03-29T08:03:39.870Z,92894.16
2023-03-29T08:06:44.076Z,92872.78
2023-03-29T08:09:48.603Z,92883.84
2023-03-29T08:12:53.886Z,92887.88
2023-03-29T08:16:04.914Z,92884.41
2023-03-29T08:19:14.719Z,92893.72
2023-03-29T08:22:39.470Z,92871.81
2023-03-29T08:25:48.482Z,92885.63
2023-03-29T08:28:52.842Z,92882.13
2023-03-29T08:31:59.179Z,92872.06
2023-03-29T08:35:04.382Z,92881.91
2023-03-29T08:38:13.361Z,92888.09
2023-03-29T08:41:37.961Z,92879.53
2023-03-29T08:45:02.947Z,92880.38
2023-03-29T08:48:33.281Z,92884.47
2023-03-29T08:51:50.225Z,92877.78
2023-03-29T08:54:57.943Z,92887.72
2023-03-29T08:58:08.163Z,92885.97
2023-03-29T09:01:13.382Z,92883.00
2023-03-29T09:04:35.388Z,92871.97
2023-03-29T09:07:54.407Z,92873.50
2023-03-29T09:11:23.379Z,92875.56
2023-03-29T09:14:41.943Z,92866.41
2023-03-29T09:17:55.415Z,92877.19
2023-03-29T09:21:22.129Z,92879.19
2023-03-29T09:24:47.677Z,92881.66
2023-03-29T09:28:14.058Z,92877.66
2023-03-29T09:31:38.041Z,92874.81
2023-03-29T09:34:50.012Z,92873.94
2023-03-29T09:37:56.808Z,92860.78
2023-03-29T09:41:25.439Z,92865.81
2023-03-29T09:44:54.050Z,92874.59
2023-03-29T09:48:15.333Z,92860.38
2023-03-29T09:51:29.107Z,92866.13
2023-03-29T09:54:33.181Z,92866.88
2023-03-29T09:58:02.683Z,92865.81
2023-03-29T10:01:16.306Z,92873.88
2023-03-29T10:04:22.519Z,92874.16
2023-03-29T10:07:45.237Z,92854.63
2023-03-29T10:10:50.996Z,92855.31
2023-03-29T10:13:57.325Z,92848.81
2023-03-29T10:17:02.024Z,92861.84
2023-03-29T10:20:09.689Z,92856.63
2023-03-29T10:23:19.825Z,92851.31
2023-03-29T10:26:35.117Z,92864.66
2023-03-29T10:29:43.096Z,92862.59
2023-03-29T10:32:47.608Z,92855.13
2023-03-29T10:35:52.505Z,92861.13
2023-03-29T10:38:59.944Z,92859.78
2023-03-29T10:42:05.957Z,92866.31
2023-03-29T10:45:22.189Z,92863.59
2023-03-29T10:48:37.070Z,92870.16
2023-03-29T10:51:46.336Z,92865.94
2023-03-29T10:54:53.325Z,92879.06
2023-03-29T10:58:14.720Z,92872.34
2023-03-29T11:01:30.023Z,92876.28
2023-03-29T11:04:58.444Z,92872.56
2023-03-29T11:08:11.837Z,92877.72
2023-03-29T11:11:32.173Z,92875.56
2023-03-29T11:14:56.817Z,92871.81
2023-03-29T11:18:13.055Z,92873.66
2023-03-29T11:21:27.783Z,92874.25
2023-03-29T11:24:46.448Z,92884.63
2023-03-29T11:28:13.423Z,92888.19
2023-03-29T11:31:31.691Z,92878.56
2023-03-29T11:35:20.275Z,92892.56
2023-03-29T11:38:38.399Z,92887.91
2023-03-29T11:41:47.494Z,92889.28
2023-03-29T11:44:55.121Z,92889.19
2023-03-29T11:48:01.312Z,92889.06
2023-03-29T11:51:16.352Z,92895.88
2023-03-29T11:54:47.182Z,92890.44
2023-03-29T11:57:59.316Z,92897.06
2023-03-29T12:01:08.014Z,92888.25
2023-03-29T12:04:23.768Z,92888.28
2023-03-29T12:07:29.417Z,92885.50
2023-03-29T12:10:44.555Z,92888.88
2023-03-29T12:13:54.384Z,92889.41
2023-03-29T12:17:05.922Z,92886.59
2023-03-29T12:20:27.392Z,92907.22
2023-03-29T12:23:34.227Z,92901.09
2023-03-29T12:27:20.358Z,92891.31
2023-03-29T12:30:37.096Z,92895.03
2023-03-29T12:34:01.564Z,92893.63
2023-03-29T12:37:48.853Z,92888.59
2023-03-29T12:41:25.790Z,92889.19
2023-03-29T12:44:52.034Z,92887.88
2023-03-29T12:48:02.997Z,92885.28
2023-03-29T12:51:13.442Z,92887.91
2023-03-29T12:54:29.470Z,92887.88
2023-03-29T12:58:05.234Z,92889.03
2023-03-29T13:01:23.659Z,92890.13
2023-03-29T13:04:54.121Z,92894.72
2023-03-29T13:07:57.896Z,92896.69
2023-03-29T13:11:01.558Z,92894.25
2023-03-29T13:14:14.295Z,92887.28
2023-03-29T13:17:41.134Z,92895.13
2023-03-29T13:21:17.760Z,92894.88
2023-03-29T13:24:42.213Z,92898.97
2023-03-29T13:28:04.995Z,92891.41
2023-03-29T13:31:38.847Z,92893.34
2023-03-29T13:35:08.169Z,92890.84
2023-03-29T13:38:29.128Z,92882.91
2023-03-29T13:41:41.614Z,92885.63
2023-03-29T13:44:49.412Z,92878.94
2023-03-29T13:48:07.300Z,92884.16
2023-03-29T13:51:19.546Z,92884.81
2023-03-29T13:54:42.684Z,92876.16
2023-03-29T13:58:21.594Z,92876.13
2023-03-29T14:01:40.568Z,92880.03
2023-03-29T14:04:47.404Z,92881.94
2023-03-29T14:07:55.119Z,92885.75
2023-03-29T14:11:02.752Z,92884.41
2023-03-29T14:14:08.813Z,92875.69
2023-03-29T14:17:24.978Z,92877.00
2023-03-29T14:20:28.515Z,92878.34
2023-03-29T14:23:34.484Z,92879.69
2023-03-29T14:26:38.919Z,92885.63
2023-03-29T14:29:45.480Z,92870.88
2023-03-29T14:32:50.969Z,92874.88
2023-03-29T14:35:56.277Z,92874.19
2023-03-29T14:39:06.278Z,92873.53
2023-03-29T14:42:17.965Z,92870.78
2023-03-29T14:45:26.357Z,92878.19
2023-03-29T14:48:33.729Z,92884.41
2023-03-29T14:51:37.639Z,92879.97
2023-03-29T14:54:44.946Z,92880.69
2023-03-29T14:57:48.573Z,92887.44
2023-03-29T15:00:53.824Z,92885.00
2023-03-29T15:04:04.105Z,92881.25
2023-03-29T15:07:08.907Z,92874.03
2023-03-29T15:10:20.181Z,92871.16
2023-03-29T15:13:25.773Z,92867.91
2023-03-29T15:16:31.548Z,92865.25
2023-03-29T15:19:37.163Z,92860.75
2023-03-29T15:22:52.410Z,92859.38
2023-03-29T15:26:07.596Z,92856.78
2023-03-29T15:29:24.270Z,92846.22
2023-03-29T15:32:35.556Z,92844.13
2023-03-29T15:35:38.639Z,92843.34
2023-03-29T15:38:45.385Z,92837.38
2023-03-29T15:41:51.903Z,92825.25
2023-03-29T15:44:57.124Z,92823.91
2023-03-29T15:48:05.197Z,92818.38
2023-03-29T15:51:08.166Z,92817.63
2023-03-29T15:54:11.445Z,92797.47
2023-03-29T15:57:16.931Z,92806.00
2023-03-29T16:00:21.654Z,92807.97
2023-03-29T16:03:25.524Z,92810.63
2023-03-29T16:06:29.223Z,92809.94
2023-03-29T16:09:33.320Z,92812.78
2023-03-29T16:12:39.023Z,92805.41
2023-03-29T16:15:43.878Z,92810.88
2023-03-29T16:18:48.092Z,92806.31
2023-03-29T16:21:53.735Z,92801.09
2023-03-29T16:24:57.660Z,92804.72
2023-03-29T16:28:02.448Z,92799.50
2023-03-29T16:31:06.684Z,92801.56
2023-03-29T16:34:13.919Z,92794.00
2023-03-29T16:37:17.628Z,92800.03
2023-03-29T16:40:22.102Z,92806.63
2023-03-29T16:43:25.747Z,92814.50
2023-03-29T16:46:30.279Z,92809.69
2023-03-29T16:49:34.108Z,92813.63
2023-03-29T16:52:38.973Z,92814.22
2023-03-29T16:55:43.308Z,92809.59
2023-03-29T16:58:47.056Z,92810.81
2023-03-29T17:01:50.263Z,92821.44
2023-03-29T17:04:53.589Z,92822.75
2023-03-29T17:07:57.385Z,92822.75
2023-03-29T17:11:00.916Z,92819.91
2023-03-29T17:14:04.662Z,92826.31
2023-03-29T17:17:08.360Z,92816.94
2023-03-29T17:20:15.945Z,92818.25
2023-03-29T17:23:20.358Z,92819.59
2023-03-29T17:26:24.189Z,92815.47
2023-03-29T17:29:27.701Z,92809.88
2023-03-29T17:32:31.867Z,92820.94
2023-03-29T17:35:34.927Z,92823.47
2023-03-29T17:38:38.631Z,92813.91
2023-03-29T17:41:42.777Z,92820.66
2023-03-29T17:44:46.854Z,92819.56
2023-03-29T17:47:49.904Z,92822.78
2023-03-29T17:50:55.278Z,92821.22
2023-03-29T17:53:58.801Z,92831.00
2023-03-29T17:57:02.165Z,92818.91
2023-03-29T18:00:07.150Z,92818.53
2023-03-29T18:03:10.726Z,92821.22
2023-03-29T18:06:14.462Z,92818.66
2023-03-29T18:09:17.525Z,92821.84
2023-03-29T18:12:20.527Z,92822.97
2023-03-29T18:15:24.246Z,92812.91
2023-03-29T18:18:28.399Z,92814.06
2023-03-29T18:21:32.193Z,92814.47
2023-03-29T18:24:35.314Z,92822.44
2023-03-29T18:27:39.601Z,92828.44
2023-03-29T18:30:43.835Z,92829.19
2023-03-29T18:33:48.128Z,92823.72
2023-03-29T18:36:54.518Z,92827.69
2023-03-29T18:39:57.776Z,92828.28
2023-03-29T18:43:01.563Z,92839.38
2023-03-29T18:46:04.777Z,92837.41
2023-03-29T18:49:13.725Z,92838.09
2023-03-29T18:52:17.406Z,92847.34
2023-03-29T18:55:20.722Z,92840.69
2023-03-29T18:58:24.558Z,92833.34
2023-03-29T19:01:27.551Z,92831.84
2023-03-29T19:04:30.856Z,92829.56
2023-03-29T19:07:34.389Z,92833.84
2023-03-29T19:10:39.729Z,92833.00
2023-03-29T19:13:43.594Z,92838.38
2023-03-29T19:16:46.803Z,92842.22
2023-03-29T19:19:50.216Z,92841.97
2023-03-29T19:22:54.319Z,92843.09
2023-03-29T19:26:01.243Z,92844.31
2023-03-29T19:29:06.086Z,92836.34
2023-03-29T19:32:10.453Z,92847.78
2023-03-29T19:35:14.089Z,92844.94
2023-03-29T19:38:18.914Z,92843.53
2023-03-29T19:41:22.735Z,92856.66
2023-03-29T19:44:26.710Z,92847.09
2023-03-29T19:47:30.308Z,92852.16
2023-03-29T19:50:34.479Z,92857.88
2023-03-29T19:53:39.087Z,92861.97
2023-03-29T19:56:43.803Z,92862.00
2023-03-29T19:59:47.389Z,92862.66
2023-03-29T20:02:51.801Z,92866.09
2023-03-29T20:05:57.800Z,92862.78
2023-03-29T20:09:01.120Z,92850.59
2023-03-29T20:12:04.787Z,92858.50
2023-03-29T20:15:08.389Z,92864.69
2023-03-29T20:18:11.656Z,92856.66
2023-03-29T20:21:17.502Z,92855.31
2023-03-29T20:24:21.527Z,92856.28
2023-03-29T20:27:24.769Z,92851.38
2023-03-29T20:30:28.896Z,92851.69
2023-03-29T20:33:32.057Z,92857.09
2023-03-29T20:36:36.074Z,92845.41
2023-03-29T20:39:39.855Z,92845.97
2023-03-29T20:42:43.806Z,92845.34
2023-03-29T20:45:53.822Z,92854.44
2023-03-29T20:48:58.126Z,92859.66
2023-03-29T20:52:01.867Z,92860.31
2023-03-29T20:55:06.614Z,92853.66
2023-03-29T20:58:10.218Z,92859.53
2023-03-29T21:01:15.294Z,92857.56
2023-03-29T21:04:19.576Z,92857.44
2023-03-29T21:07:23.692Z,92856.16
2023-03-29T21:10:28.771Z,92864.09
2023-03-29T21:13:36.555Z,92862.16
2023-03-29T21:16:42.206Z,92875.41
2023-03-29T21:19:46.529Z,92867.47
2023-03-29T21:22:51.161Z,92870.75
2023-03-29T21:25:55.170Z,92870.16
2023-03-29T21:28:58.888Z,92870.88
2023-03-29T21:32:03.026Z,92858.97
2023-03-29T21:35:07.519Z,92853.72
2023-03-29T21:38:11.729Z,92853.72
2023-03-29T21:41:15.555Z,92853.03
2023-03-29T21:44:19.588Z,92859.59
2023-03-29T21:47:23.237Z,92858.41
2023-03-29T21:50:27.756Z,92857.81
2023-03-29T21:53:31.551Z,92854.44
2023-03-29T21:56:35.213Z,92859.03
2023-03-29T21:59:38.244Z,92856.22
2023-03-29T22:02:43.434Z,92859.50
2023-03-29T22:05:59.380Z,92852.88
2023-03-29T22:09:03.957Z,92867.56
2023-03-29T22:12:08.484Z,92858.97
2023-03-29T22:15:13.763Z,92864.28
2023-03-29T22:18:17.373Z,92866.44
2023-03-29T22:21:24.973Z,92875.00
2023-03-29T22:24:29.593Z,92885.50
2023-03-29T22:27:32.748Z,92876.13
2023-03-29T22:30:36.576Z,92866.09
2023-03-29T22:33:42.275Z,92878.16
2023-03-29T22:36:45.597Z,92870.16
2023-03-29T22:39:51.653Z,92871.63
2023-03-29T22:42:55.653Z,92865.06
2023-03-29T22:45:58.684Z,92875.22
2023-03-29T22:49:02.488Z,92866.09
2023-03-29T22:52:06.350Z,92868.84
2023-03-29T22:55:10.361Z,92867.72
2023-03-29T22:58:14.217Z,92869.97
2023-03-29T23:01:18.249Z,92870.13
2023-03-29T23:04:21.494Z,92862.31
2023-03-29T23:07:25.029Z,92870.59
2023-03-29T23:10:29.635Z,92872.13
2023-03-29T23:13:34.426Z,92875.50
2023-03-29T23:16:37.700Z,92882.06
2023-03-29T23:19:42.153Z,92879.41
2023-03-29T23:22:45.791Z,92889.09
2023-03-29T23:25:51.466Z,92883.78
2023-03-29T23:28:55.455Z,92884.59
2023-03-29T23:32:00.122Z,92886.19
2023-03-29T23:35:05.466Z,92879.91
2023-03-29T23:38:09.148Z,92874.97
2023-03-29T23:41:13.977Z,92890.22
2023-03-29T23:44:17.664Z,92892.50
2023-03-29T23:47:21.529Z,92888.91
2023-03-29T23:50:29.375Z,92899.31
2023-03-29T23:53:33.310Z,92897.66
2023-03-29T23:56:36.233Z,92893.94
2023-03-29T23:59:40.676Z,92899.53
